Time;durP1;ratioP1;P1;durP2;ratioP2;P2;SDS_P1;SDS_P2;PMS_P1;PMS_P2;Temp;Humidity;BMP_temperature;BMP_pressure;BME280_temperature;BME280_humidity;BME280_pressure;Samples;Min_cycle;Max_cycle;Signal;HPM_P1;HPM_P2
2021/04/14 00:02:06;;;;;;;11.43;9.27;;;;;;;3.56;70.75;99306.31;1819786;79;21128;-84
2021/04/14 00:04:33;;;;;;;10.60;8.98;;;;;;;3.51;71.26;99297.70;1819143;79;21152;-84
2021/04/14 00:07:00;;;;;;;10.85;9.65;;;;;;;3.49;71.32;99295.37;1819424;79;21136;-83
2021/04/14 00:09:28;;;;;;;11.05;9.33;;;;;;;3.50;71.35;99294.23;1819280;79;21131;-85
2021/04/14 00:11:56;;;;;;;11.03;9.38;;;;;;;3.51;71.29;99280.25;1818817;79;21618;-85
2021/04/14 00:14:23;;;;;;;10.78;9.58;;;;;;;3.51;71.29;99280.25;1819857;79;21283;-84
2021/04/14 00:16:49;;;;;;;10.88;9.38;;;;;;;3.52;71.37;99289.33;1819305;79;21128;-83
2021/04/14 00:19:16;;;;;;;10.65;9.15;;;;;;;3.47;71.44;99279.36;1819535;79;21155;-84
2021/04/14 00:21:42;;;;;;;9.40;8.38;;;;;;;3.48;71.49;99278.23;1819425;79;21152;-85
2021/04/14 00:24:13;;;;;;;10.08;8.90;;;;;;;3.45;71.53;99277.56;1819722;79;21614;-92
2021/04/14 00:26:39;;;;;;;10.05;8.73;;;;;;;3.44;71.67;99267.39;1819424;79;21602;-90
2021/04/14 00:29:06;;;;;;;10.45;8.58;;;;;;;3.45;71.72;99262.23;1819986;79;21140;-87
2021/04/14 00:31:36;;;;;;;10.63;8.65;;;;;;;3.43;71.79;99263.69;1820328;79;21148;-87
2021/04/14 00:34:08;;;;;;;8.35;7.40;;;;;;;3.45;71.85;99259.55;1820121;79;21125;-89
2021/04/14 00:36:35;;;;;;;7.95;7.15;;;;;;;3.39;71.71;99250.16;1819452;79;21109;-87
2021/04/14 00:39:05;;;;;;;9.50;8.50;;;;;;;3.39;71.71;99250.16;1819798;79;21159;-88
2021/04/14 00:41:31;;;;;;;8.63;7.53;;;;;;;3.37;71.98;99247.59;1819422;79;21595;-88
2021/04/14 00:43:58;;;;;;;7.65;6.85;;;;;;;3.38;72.03;99258.53;1819495;79;21126;-86
2021/04/14 00:46:24;;;;;;;8.65;7.42;;;;;;;3.38;72.03;99258.53;1819559;79;21145;-88
2021/04/14 00:48:51;;;;;;;7.80;7.00;;;;;;;3.40;72.14;99257.08;1819304;79;21148;-86
2021/04/14 00:51:19;;;;;;;7.50;6.80;;;;;;;3.41;72.00;99251.15;1819501;79;21152;-88
2021/04/14 00:53:46;;;;;;;7.55;6.62;;;;;;;3.41;72.00;99251.15;1819473;79;21563;-89
2021/04/14 00:56:12;;;;;;;7.92;6.97;;;;;;;3.42;72.02;99254.85;1819609;79;21583;-90
2021/04/14 00:58:39;;;;;;;7.35;6.65;;;;;;;3.36;72.06;99247.37;1820209;79;21152;-88
2021/04/14 01:01:05;;;;;;;7.85;6.97;;;;;;;3.36;72.13;99244.69;1819526;79;21167;-92
2021/04/14 01:03:35;;;;;;;7.60;6.90;;;;;;;3.39;72.24;99237.30;1819725;79;21270;-87
2021/04/14 01:06:11;;;;;;;7.80;7.00;;;;;;;3.39;72.18;99245.36;1819521;79;21144;-87
2021/04/14 01:08:38;;;;;;;7.62;6.72;;;;;;;3.31;72.18;99234.38;1818138;79;21180;-91
2021/04/14 01:11:05;;;;;;;7.80;6.97;;;;;;;3.27;72.32;99236.19;1819486;79;21132;-92
2021/04/14 01:13:32;;;;;;;7.30;6.60;;;;;;;3.30;72.39;99230.67;1819494;79;21133;-91
2021/04/14 01:15:58;;;;;;;9.07;7.50;;;;;;;3.32;72.40;99230.56;1820147;79;21140;-92
2021/04/14 01:18:29;;;;;;;8.48;7.20;;;;;;;3.32;72.38;99227.88;1819773;79;21867;-91
2021/04/14 01:20:55;;;;;;;8.48;7.60;;;;;;;3.31;72.24;99228.23;1819951;79;21132;-90
2021/04/14 01:23:23;;;;;;;8.78;7.50;;;;;;;3.31;72.24;99228.23;1820615;79;21129;-90
2021/04/14 01:25:49;;;;;;;;;;;;;;;3.29;72.43;99226.44;1822927;79;21168;-91
2021/04/14 01:28:18;;;;;;;8.00;6.95;;;;;;;3.32;72.38;99218.48;1820184;79;20152;-91
2021/04/14 01:30:49;;;;;;;8.23;7.28;;;;;;;3.33;72.12;99219.30;1819891;79;21524;-92
2021/04/14 01:33:14;;;;;;;8.05;7.22;;;;;;;3.26;72.19;99221.74;1819404;79;21155;-92
2021/04/14 01:35:41;;;;;;;7.55;6.75;;;;;;;3.24;72.33;99218.03;1819673;79;21156;-92
2021/04/14 01:38:07;;;;;;;7.95;7.12;;;;;;;3.28;72.31;99227.00;1819309;79;21140;-89
2021/04/14 01:40:34;;;;;;;8.23;7.40;;;;;;;3.28;72.33;99219.52;1819714;79;21152;-92
2021/04/14 01:43:00;;;;;;;7.78;7.00;;;;;;;3.25;72.34;99215.59;1819871;79;21136;-93
2021/04/14 01:45:33;;;;;;;7.72;6.90;;;;;;;3.22;72.48;99219.48;1819838;79;21266;-93
2021/04/14 01:47:59;;;;;;;8.20;7.40;;;;;;;3.26;72.55;99218.49;1819837;79;21595;-90
2021/04/14 01:50:26;;;;;;;8.10;7.10;;;;;;;3.26;72.48;99212.34;1819805;79;21144;-88
2021/04/14 01:52:53;;;;;;;7.07;6.37;;;;;;;3.21;72.55;99212.00;1820295;79;21507;-88
2021/04/14 01:55:19;;;;;;;8.88;7.20;;;;;;;3.23;72.54;99212.45;1819330;79;21101;-88
2021/04/14 01:57:47;;;;;;;7.62;6.87;;;;;;;3.23;72.53;99207.09;1820399;79;21282;-88
2021/04/14 02:00:21;;;;;;;;;;;;;;;3.20;72.49;99202.95;1822484;79;21094;-89
2021/04/14 02:02:48;;;;;;;6.95;5.87;;;;;;;3.16;72.52;99216.24;1819296;79;20129;-90
2021/04/14 02:05:16;;;;;;;8.60;6.47;;;;;;;3.16;72.42;99211.44;1819433;79;21139;-89
2021/04/14 02:07:42;;;;;;;7.10;6.37;;;;;;;3.08;72.46;99207.73;1819485;79;21140;-90
2021/04/14 02:10:10;;;;;;;6.70;6.00;;;;;;;3.03;72.61;99211.44;1819549;79;21140;-90
2021/04/14 02:12:37;;;;;;;7.58;6.62;;;;;;;3.00;72.74;99213.45;1819276;79;21156;-90
2021/04/14 02:15:06;;;;;;;8.15;6.58;;;;;;;3.00;72.87;99218.02;1819546;79;21132;-90
2021/04/14 02:17:33;;;;;;;7.20;6.25;;;;;;;3.01;73.02;99208.30;1819411;79;21160;-90
2021/04/14 02:20:00;;;;;;;7.22;6.47;;;;;;;3.03;73.07;99216.03;1819420;79;21144;-87
2021/04/14 02:22:27;;;;;;;6.80;6.05;;;;;;;3.08;73.13;99221.16;1819361;79;21136;-86
2021/04/14 02:24:53;;;;;;;6.12;5.53;;;;;;;3.14;73.03;99212.33;1820230;79;21136;-87
2021/04/14 02:27:20;;;;;;;6.97;6.28;;;;;;;3.17;72.93;99211.69;1819900;79;21137;-86
2021/04/14 02:29:47;;;;;;;5.90;5.20;;;;;;;3.16;72.84;99216.24;1819635;79;21160;-86
2021/04/14 02:32:14;;;;;;;7.20;5.83;;;;;;;3.11;72.77;99203.07;1819669;79;21267;-87
2021/04/14 02:34:40;;;;;;;6.55;5.85;;;;;;;3.05;72.83;99200.36;1814615;79;21148;-88
2021/04/14 02:37:07;;;;;;;6.08;5.47;;;;;;;3.01;73.09;99221.72;1819483;79;21560;-86
2021/04/14 02:39:33;;;;;;;6.45;5.85;;;;;;;3.02;73.10;99213.88;1819314;79;21586;-87
2021/04/14 02:42:00;;;;;;;7.03;5.92;;;;;;;3.01;73.25;99223.06;1819533;79;21136;-86
2021/04/14 02:44:27;;;;;;;6.47;5.87;;;;;;;3.04;73.30;99215.69;1819817;79;21571;-93
2021/04/14 02:46:55;;;;;;;6.13;5.00;;;;;;;3.11;73.23;99213.23;1820138;79;21199;-85
2021/04/14 02:49:24;;;;;;;5.83;5.22;;;;;;;3.10;73.08;99214.34;1819537;79;21140;-84
2021/04/14 02:51:51;;;;;;;5.58;5.08;;;;;;;3.05;73.02;99218.58;1819292;79;21152;-82
2021/04/14 02:54:18;;;;;;;5.12;4.62;;;;;;;3.02;73.10;99207.17;1819375;79;21117;-81
2021/04/14 02:56:44;;;;;;;5.45;4.53;;;;;;;3.02;73.10;99208.52;1819413;79;21137;-82
2021/04/14 02:59:11;;;;;;;5.28;4.78;;;;;;;2.99;73.16;99207.84;1819389;79;21164;-82
2021/04/14 03:01:38;;;;;;;5.65;4.58;;;;;;;2.99;73.15;99215.89;1819402;79;21148;-83
2021/04/14 03:04:06;;;;;;;4.95;4.45;;;;;;;2.94;73.20;99207.28;1819603;79;21259;-83
2021/04/14 03:06:33;;;;;;;;;;;;;;;2.94;73.29;99209.41;1822178;79;21661;-83
2021/04/14 03:08:59;;;;;;;4.95;4.10;;;;;;;2.96;73.29;99209.08;1819378;79;20379;-83
2021/04/14 03:11:26;;;;;;;5.53;4.30;;;;;;;2.91;72.94;99211.97;1819467;79;21527;-83
2021/04/14 03:13:52;;;;;;;5.28;4.50;;;;;;;2.91;72.94;99211.97;1819481;79;21149;-82
2021/04/14 03:16:19;;;;;;;4.70;4.30;;;;;;;2.96;73.21;99217.13;1819357;79;21144;-81
2021/04/14 03:18:45;;;;;;;5.05;4.22;;;;;;;2.95;73.11;99214.23;1819320;79;21607;-82
2021/04/14 03:21:12;;;;;;;4.70;4.10;;;;;;;2.89;73.16;99218.47;1819478;79;21705;-82
2021/04/14 03:23:38;;;;;;;5.00;4.20;;;;;;;2.86;73.24;99210.28;1819211;79;21125;-82
2021/04/14 03:26:05;;;;;;;4.78;3.80;;;;;;;2.82;73.36;99212.08;1819580;79;21141;-82
2021/04/14 03:28:32;;;;;;;4.55;3.60;;;;;;;2.83;73.58;99217.66;1819402;79;21140;-83
2021/04/14 03:30:58;;;;;;;4.08;3.33;;;;;;;2.79;73.45;99208.72;1820146;79;21631;-84
2021/04/14 03:33:25;;;;;;;4.42;3.30;;;;;;;2.73;73.49;99213.52;1819155;79;21555;-84
2021/04/14 03:35:51;;;;;;;4.37;3.50;;;;;;;2.67;73.52;99212.13;1819162;79;21156;-83
2021/04/14 03:38:18;;;;;;;3.98;2.90;;;;;;;2.60;73.73;99210.00;1787811;79;21125;-83
2021/04/14 03:40:44;;;;;;;2.98;2.67;;;;;;;2.53;73.87;99204.95;1824993;79;21535;-83
2021/04/14 03:43:11;;;;;;;3.70;2.75;;;;;;;2.46;74.02;99208.19;1825118;79;21136;-82
2021/04/14 03:45:41;;;;;;;3.12;2.77;;;;;;;2.39;74.17;99212.72;1824955;79;21547;-83
2021/04/14 03:48:07;;;;;;;4.87;3.00;;;;;;;2.36;74.49;99213.38;1824808;79;21139;-83
2021/04/14 03:50:33;;;;;;;3.98;2.87;;;;;;;2.33;74.57;99214.05;1825356;79;21131;-83
2021/04/14 03:53:12;;;;;;;4.12;2.90;;;;;;;2.33;74.80;99217.28;1825088;79;21101;-82
2021/04/14 03:55:38;;;;;;;3.65;2.65;;;;;;;2.36;74.97;99216.06;1824618;79;21157;-84
2021/04/14 03:58:05;;;;;;;4.35;2.85;;;;;;;2.34;74.92;99212.92;1825039;79;21152;-83
2021/04/14 04:00:31;;;;;;;3.72;2.92;;;;;;;2.30;75.08;99213.93;1824904;79;21143;-84
2021/04/14 04:02:58;;;;;;;4.08;3.00;;;;;;;2.32;75.12;99215.70;1825097;79;21173;-83
2021/04/14 04:05:25;;;;;;;2.80;2.40;;;;;;;2.34;75.12;99228.22;1825146;79;21136;-84
2021/04/14 04:07:51;;;;;;;4.28;2.87;;;;;;;2.35;75.10;99223.11;1825080;79;21154;-85
2021/04/14 04:10:18;;;;;;;3.12;2.50;;;;;;;2.33;75.14;99216.73;1824957;79;21151;-84
2021/04/14 04:12:44;;;;;;;5.08;2.50;;;;;;;2.36;75.17;99225.44;1825112;79;21127;-84
2021/04/14 04:15:12;;;;;;;3.90;3.00;;;;;;;2.36;75.28;99226.78;1824963;79;21172;-84
2021/04/14 04:17:40;;;;;;;3.52;2.70;;;;;;;2.39;75.16;99223.44;1824953;79;21128;-84
2021/04/14 04:20:08;;;;;;;3.60;2.87;;;;;;;2.39;75.08;99229.37;1825360;79;21127;-84
2021/04/14 04:22:34;;;;;;;3.50;2.77;;;;;;;2.36;75.21;99235.39;1825166;79;21136;-83
2021/04/14 04:25:02;;;;;;;5.37;3.17;;;;;;;2.36;75.46;99232.70;1825089;79;21164;-83
2021/04/14 04:27:28;;;;;;;3.98;2.98;;;;;;;2.43;75.54;99236.43;1825202;79;21141;-81
2021/04/14 04:29:55;;;;;;;4.72;3.20;;;;;;;2.51;75.53;99240.15;1824888;79;21136;-83
2021/04/14 04:32:21;;;;;;;5.22;2.72;;;;;;;2.58;75.39;99239.60;1824851;79;21136;-81
2021/04/14 04:34:48;;;;;;;4.70;2.72;;;;;;;2.61;75.36;99240.28;1824952;79;21105;-81
2021/04/14 04:37:15;;;;;;;4.08;2.60;;;;;;;2.67;75.28;99241.63;1824840;79;21164;-84
2021/04/14 04:39:41;;;;;;;4.85;2.80;;;;;;;2.72;75.17;99242.77;1824999;79;21578;-81
2021/04/14 04:42:08;;;;;;;4.45;2.70;;;;;;;2.74;75.10;99246.47;1825161;79;21144;-82
2021/04/14 04:44:35;;;;;;;4.20;2.80;;;;;;;2.78;75.07;99245.48;1825343;79;21149;-87
2021/04/14 04:47:01;;;;;;;3.30;2.40;;;;;;;2.85;75.08;99246.28;1825172;78;21148;-85
2021/04/14 04:49:28;;;;;;;4.55;3.10;;;;;;;2.91;75.00;99244.94;1824915;79;21132;-83
2021/04/14 04:51:54;;;;;;;5.28;3.25;;;;;;;2.93;74.89;99240.03;1824835;79;21141;-83
2021/04/14 04:54:21;;;;;;;4.42;3.80;;;;;;;2.95;74.72;99244.52;1824868;79;21144;-82
2021/04/14 04:56:47;;;;;;;6.50;4.00;;;;;;;2.98;74.74;99241.73;1824863;79;21135;-83
2021/04/14 04:59:14;;;;;;;4.83;4.20;;;;;;;3.01;74.67;99248.55;1824847;79;21143;-83
2021/04/14 05:01:42;;;;;;;5.58;4.40;;;;;;;3.03;74.59;99246.89;1824932;79;21160;-84
2021/04/14 05:04:11;;;;;;;6.72;5.10;;;;;;;3.10;74.57;99243.08;1824977;79;21092;-85
2021/04/14 05:06:37;;;;;;;6.55;4.90;;;;;;;3.18;74.52;99240.85;1824607;79;21129;-87
2021/04/14 05:09:04;;;;;;;7.60;5.53;;;;;;;3.24;74.35;99237.39;1825135;79;21580;-87
2021/04/14 05:11:31;;;;;;;5.63;5.00;;;;;;;3.31;74.19;99243.77;1825206;79;21156;-86
2021/04/14 05:13:57;;;;;;;9.48;6.42;;;;;;;3.39;74.02;99241.33;1825150;79;21137;-82
2021/04/14 05:16:24;;;;;;;6.20;5.13;;;;;;;3.42;73.83;99247.37;1825400;79;21148;-84
2021/04/14 05:18:51;;;;;;;6.55;5.50;;;;;;;3.46;73.64;99252.27;1825257;79;21153;-84
2021/04/14 05:21:19;;;;;;;7.17;5.37;;;;;;;3.48;73.45;99248.14;1825040;79;21132;-87
2021/04/14 05:23:46;;;;;;;7.42;5.95;;;;;;;3.49;73.38;99250.26;1825779;79;21160;-87
2021/04/14 05:26:14;;;;;;;6.17;5.28;;;;;;;3.51;73.30;99250.71;1825055;79;21167;-84
2021/04/14 05:28:44;;;;;;;8.23;5.92;;;;;;;3.54;73.29;99250.81;1824785;79;21116;-83
2021/04/14 05:31:11;;;;;;;6.83;5.03;;;;;;;3.63;73.33;99241.86;1825138;79;21152;-85
2021/04/14 05:33:38;;;;;;;6.03;5.08;;;;;;;3.63;73.33;99241.86;1825264;79;21195;-84
2021/04/14 05:36:06;;;;;;;6.95;4.83;;;;;;;3.66;72.96;99246.58;1825379;79;21140;-84
2021/04/14 05:38:32;;;;;;;6.60;4.78;;;;;;;3.69;72.81;99246.68;1825026;79;21129;-87
2021/04/14 05:40:59;;;;;;;5.60;4.67;;;;;;;3.69;72.65;99244.56;1819375;79;21144;-81
2021/04/14 05:43:29;;;;;;;4.65;4.00;;;;;;;3.69;72.69;99240.53;1819838;79;21097;-83
2021/04/14 05:45:57;;;;;;;6.67;4.42;;;;;;;3.69;72.42;99245.34;1817523;79;21105;-87
2021/04/14 05:48:24;;;;;;;6.75;4.35;;;;;;;3.63;72.40;99233.27;1819275;79;21143;-86
2021/04/14 05:50:50;;;;;;;6.00;4.60;;;;;;;3.63;72.37;99236.48;1819615;79;21144;-85
2021/04/14 05:53:17;;;;;;;6.43;4.13;;;;;;;3.58;72.35;99238.86;1819434;79;21121;-84
2021/04/14 05:55:44;;;;;;;6.20;4.40;;;;;;;3.56;72.37;99241.09;1819497;79;21587;-83
2021/04/14 05:58:10;;;;;;;7.12;3.90;;;;;;;3.58;72.32;99244.23;1819025;79;21459;-83
2021/04/14 06:00:37;;;;;;;6.37;3.85;;;;;;;3.53;72.25;99238.52;1819408;79;21143;-84
2021/04/14 06:03:04;;;;;;;6.43;4.53;;;;;;;3.52;72.25;99240.21;1819810;79;21151;-83
2021/04/14 06:05:30;;;;;;;6.97;4.40;;;;;;;3.54;72.29;99244.66;1819533;79;21594;-84
2021/04/14 06:07:57;;;;;;;5.72;4.10;;;;;;;3.55;72.23;99245.69;1819221;79;21164;-83
2021/04/14 06:10:24;;;;;;;4.67;3.90;;;;;;;3.60;72.29;99240.66;1819426;79;21149;-83
2021/04/14 06:12:52;;;;;;;5.67;4.05;;;;;;;3.64;72.05;99230.80;1819456;79;21172;-84
2021/04/14 06:15:23;;;;;;;4.80;3.67;;;;;;;3.63;72.04;99243.20;1819409;79;21137;-83
2021/04/14 06:17:50;;;;;;;5.00;4.00;;;;;;;3.63;71.96;99242.66;1819478;79;21140;-86
2021/04/14 06:20:19;;;;;;;5.75;3.35;;;;;;;3.62;71.95;99246.45;1819456;79;21136;-87
2021/04/14 06:22:45;;;;;;;5.62;3.65;;;;;;;3.66;72.02;99241.98;1819250;79;21124;-86
2021/04/14 06:25:15;;;;;;;5.17;3.60;;;;;;;3.71;71.84;99244.98;1819459;79;21129;-83
2021/04/14 06:27:48;;;;;;;5.55;4.10;;;;;;;3.72;71.64;99244.66;1819106;79;21125;-82
2021/04/14 06:30:10;;;;;;;5.08;4.10;;;;;;;3.68;71.62;99237.07;1818057;79;21263;-83
2021/04/14 06:32:37;;;;;;;4.83;4.08;;;;;;;3.61;71.62;99241.44;1819435;79;21120;-85
2021/04/14 06:35:04;;;;;;;6.67;3.75;;;;;;;3.63;71.74;99245.89;1819829;79;21274;-83
2021/04/14 06:37:31;;;;;;;6.10;3.95;;;;;;;3.67;71.70;99248.14;1819559;79;21160;-86
2021/04/14 06:42:49;;;;;;;5.03;3.77;;;;;;;3.71;71.54;99251.16;1799119;79;21140;-83
2021/04/14 06:45:19;;;;;;;4.50;3.90;;;;;;;3.74;71.56;99253.73;1815950;79;21599;-84
2021/04/14 06:47:54;;;;;;;4.72;3.60;;;;;;;3.77;71.44;99249.03;1789210;79;21168;-86
2021/04/14 06:50:30;;;;;;;4.83;3.70;;;;;;;3.78;71.55;99250.02;1819350;79;21890;-84
2021/04/14 06:53:03;;;;;;;6.62;4.33;;;;;;;3.84;71.43;99243.85;1819550;79;21141;-84
2021/04/14 06:55:32;;;;;;;5.28;3.75;;;;;;;3.89;71.15;99251.69;1812183;79;21133;-84
2021/04/14 06:58:05;;;;;;;4.40;3.12;;;;;;;3.88;71.08;99250.12;1819695;79;21310;-84
2021/04/14 07:00:37;;;;;;;3.72;2.95;;;;;;;3.91;71.07;99245.98;1819373;79;21121;-84
2021/04/14 07:03:15;;;;;;;4.85;3.02;;;;;;;3.98;71.00;99250.20;1817297;79;21144;-84
2021/04/14 07:05:45;;;;;;;3.55;2.77;;;;;;;4.06;70.82;99255.23;1819459;79;21579;-83
2021/04/14 07:08:24;;;;;;;3.70;2.90;;;;;;;4.07;70.75;99254.91;1817784;79;21627;-84
2021/04/14 07:10:54;;;;;;;5.33;3.10;;;;;;;4.13;70.58;99253.55;1819191;79;21155;-85
2021/04/14 07:13:20;;;;;;;4.42;3.42;;;;;;;4.13;70.42;99252.20;1819396;79;21491;-84
2021/04/14 07:15:48;;;;;;;6.90;3.25;;;;;;;4.16;70.32;99254.20;1819298;79;21548;-84
2021/04/14 07:18:28;;;;;;;3.90;3.05;;;;;;;4.17;70.33;99261.17;1819308;79;21156;-85
2021/04/14 07:21:06;;;;;;;4.08;3.17;;;;;;;4.30;69.87;99261.89;1819440;79;21156;-83
2021/04/14 07:23:56;;;;;;;4.20;3.10;;;;;;;4.30;69.87;99261.89;1820028;79;21590;-84
2021/04/14 07:26:28;;;;;;;4.20;3.22;;;;;;;4.26;69.87;99267.75;1819476;79;21551;-83
2021/04/14 07:29:33;;;;;;;4.58;3.58;;;;;;;4.15;70.08;99263.97;1819914;79;21282;-83
2021/04/14 07:32:05;;;;;;;6.78;3.62;;;;;;;4.23;70.24;99278.61;1819398;79;21144;-84
2021/04/14 07:34:47;;;;;;;5.10;3.50;;;;;;;4.21;70.04;99258.57;1819289;79;21611;-82
2021/04/14 07:37:32;;;;;;;9.58;5.25;;;;;;;4.19;70.21;99265.62;1819242;79;21129;-82
2021/04/14 07:40:20;;;;;;;6.15;4.58;;;;;;;4.28;69.64;99274.11;1820814;79;21144;-84
2021/04/14 07:43:03;;;;;;;4.70;3.72;;;;;;;4.28;69.64;99274.11;1822857;79;21586;-83
2021/04/14 07:45:33;;;;;;;5.95;4.55;;;;;;;4.25;69.90;99274.23;1822945;79;21156;-84
2021/04/14 07:48:08;;;;;;;5.92;4.03;;;;;;;4.35;70.05;99270.29;1822530;79;21105;-83
2021/04/14 07:50:38;;;;;;;5.40;3.80;;;;;;;4.45;69.81;99272.50;1823221;79;21192;-83
2021/04/14 07:53:16;;;;;;;8.10;4.20;;;;;;;4.54;69.67;99274.48;1822555;79;21242;-85
2021/04/14 07:55:42;;;;;;;4.75;3.20;;;;;;;4.61;69.54;99275.22;1822892;79;21179;-83
2021/04/14 07:58:15;;;;;;;5.30;3.65;;;;;;;4.63;69.14;99279.14;1823469;79;21536;-83
2021/04/14 08:00:43;;;;;;;5.60;3.95;;;;;;;4.65;69.20;99269.39;1822131;79;21128;-84
2021/04/14 08:03:29;;;;;;;5.03;3.87;;;;;;;4.65;69.20;99269.39;1823075;79;21555;-83
2021/04/14 08:06:10;;;;;;;4.10;3.35;;;;;;;4.68;69.08;99270.83;1822651;79;21156;-84
2021/04/14 08:08:37;;;;;;;7.72;5.65;;;;;;;4.70;68.89;99278.56;1822474;78;21132;-83
2021/04/14 08:11:10;;;;;;;5.95;4.33;;;;;;;4.65;69.02;99272.08;1822707;79;21137;-83
2021/04/14 08:13:40;;;;;;;8.83;5.45;;;;;;;4.73;68.91;99271.15;1822536;79;21136;-83
2021/04/14 08:16:19;;;;;;;6.22;4.90;;;;;;;4.79;68.78;99273.03;1822721;79;21188;-83
2021/04/14 08:18:52;;;;;;;7.53;4.90;;;;;;;4.80;68.69;99275.39;1820047;79;21156;-85
2021/04/14 08:21:40;;;;;;;8.33;5.42;;;;;;;4.88;68.66;99285.22;1822658;79;21136;-83
2021/04/14 08:24:16;;;;;;;7.12;4.80;;;;;;;4.93;68.54;99282.81;1822872;79;21135;-82
2021/04/14 08:26:50;;;;;;;8.55;5.05;;;;;;;4.99;68.36;99279.31;1820616;79;21559;-83
2021/04/14 08:29:16;;;;;;;7.62;5.17;;;;;;;4.99;68.36;99279.31;1822580;79;21282;-85
2021/04/14 08:31:46;;;;;;;7.40;4.83;;;;;;;4.99;68.03;99270.69;1823070;79;21164;-84
2021/04/14 08:34:26;;;;;;;6.12;4.62;;;;;;;4.88;68.43;99274.98;1822598;79;21121;-85
2021/04/14 08:37:14;;;;;;;5.55;4.22;;;;;;;4.88;68.43;99274.98;1823309;79;21136;-85
2021/04/14 08:39:44;;;;;;;7.37;4.55;;;;;;;4.85;68.20;99269.73;1823017;79;21125;-85
2021/04/14 08:42:15;;;;;;;5.83;4.50;;;;;;;3.71;68.04;99098.60;1821867;79;21722;-83
2021/04/14 08:44:44;;;;;;;8.50;5.22;;;;;;;4.82;68.20;99273.11;1822670;79;21258;-83
2021/04/14 08:47:14;;;;;;;6.70;4.87;;;;;;;4.87;68.22;99274.78;1822409;79;21274;-83
2021/04/14 08:49:40;;;;;;;7.00;5.67;;;;;;;4.94;68.08;99267.45;1823070;79;21516;-82
2021/04/14 08:52:10;;;;;;;8.35;5.75;;;;;;;4.97;67.95;99270.25;1822383;79;21144;-82
2021/04/14 08:54:39;;;;;;;6.25;3.87;;;;;;;4.99;67.82;99276.62;1821082;79;21606;-82
2021/04/14 08:57:07;;;;;;;7.97;5.28;;;;;;;5.06;67.86;99271.42;1822414;79;21215;-82
2021/04/14 08:59:33;;;;;;;10.35;5.87;;;;;;;5.12;67.62;99272.73;1822576;79;21108;-82
2021/04/14 09:02:03;;;;;;;6.50;4.90;;;;;;;5.12;67.69;99272.16;1823068;79;21163;-83
2021/04/14 09:04:30;;;;;;;8.35;5.28;;;;;;;5.09;67.44;99266.70;1822437;79;21125;-83
2021/04/14 09:06:56;;;;;;;6.87;5.10;;;;;;;5.03;67.65;99272.90;1822718;79;21266;-83
2021/04/14 09:09:25;;;;;;;6.73;4.10;;;;;;;5.12;67.75;99272.73;1822568;79;21105;-83
2021/04/14 09:12:06;;;;;;;7.30;4.30;;;;;;;5.16;67.43;99271.49;1822355;79;21595;-83
2021/04/14 09:14:33;;;;;;;7.40;5.05;;;;;;;5.03;67.45;99266.17;1822897;79;21141;-83
2021/04/14 09:17:18;;;;;;;6.58;4.78;;;;;;;4.99;67.70;99268.00;1819779;79;21167;-82
2021/04/14 09:19:48;;;;;;;10.15;5.65;;;;;;;5.06;67.78;99273.55;1822652;79;21132;-87
2021/04/14 09:22:30;;;;;;;6.87;5.22;;;;;;;5.12;67.79;99272.73;1822829;79;21113;-85
2021/04/14 09:25:06;;;;;;;11.05;6.08;;;;;;;5.21;67.76;99271.21;1822563;79;21555;-85
2021/04/14 09:27:42;;;;;;;7.28;5.10;;;;;;;5.37;67.44;99266.61;1823122;79;21117;-85
2021/04/14 09:30:15;;;;;;;9.00;5.58;;;;;;;5.36;67.23;99267.75;1822303;79;21121;-87
2021/04/14 09:33:07;;;;;;;7.78;5.62;;;;;;;5.31;67.14;99263.97;1822438;79;21161;-87
2021/04/14 09:35:37;;;;;;;10.03;5.78;;;;;;;5.27;67.28;99265.23;1822612;79;21097;-87
2021/04/14 09:40:52;;;;;;;7.67;4.80;;;;;;;5.58;66.97;99265.00;1820950;79;21160;-86
2021/04/14 09:43:22;;;;;;;6.45;5.08;;;;;;;3.26;66.59;98904.47;1819119;79;21109;-85
2021/04/14 09:45:58;;;;;;;6.00;4.50;;;;;;;5.67;66.75;99270.98;1804362;79;21151;-82
2021/04/14 09:48:25;;;;;;;7.40;5.28;;;;;;;5.71;66.55;99268.38;1819268;79;21140;-84
2021/04/14 09:50:52;;;;;;;6.50;4.75;;;;;;;5.73;66.42;99269.59;1814724;79;21160;-84
2021/04/14 09:53:21;;;;;;;7.67;4.70;;;;;;;5.85;66.25;99263.31;1819063;79;21144;-84
2021/04/14 09:55:59;;;;;;;5.33;4.47;;;;;;;5.90;65.96;99264.96;1819147;79;21191;-86
2021/04/14 09:58:29;;;;;;;6.25;4.20;;;;;;;5.81;65.99;99271.09;1819471;79;21572;-84
2021/04/14 10:01:14;;;;;;;6.37;4.40;;;;;;;5.84;66.28;99273.89;1819311;79;21164;-87
2021/04/14 10:03:44;;;;;;;5.55;4.30;;;;;;;5.94;66.12;99274.70;1817913;79;21183;-86
2021/04/14 10:06:13;;;;;;;4.20;3.80;;;;;;;5.91;65.72;99275.38;1819356;79;21128;-83
2021/04/14 10:08:42;;;;;;;5.70;4.10;;;;;;;5.94;65.68;99279.31;1819268;79;21157;-83
2021/04/14 10:11:08;;;;;;;6.42;4.95;;;;;;;6.02;65.79;99282.95;1819742;79;21101;-87
2021/04/14 10:13:35;;;;;;;7.08;4.55;;;;;;;6.05;65.68;99277.63;1814778;79;21539;-85
2021/04/14 10:16:02;;;;;;;6.50;4.37;;;;;;;6.12;65.81;99275.09;1819287;79;21116;-87
2021/04/14 10:18:36;;;;;;;5.92;4.37;;;;;;;6.15;65.86;99279.78;1819320;79;21200;-86
2021/04/14 10:21:15;;;;;;;4.67;4.03;;;;;;;6.28;65.57;99272.92;1819148;79;21599;-85
2021/04/14 10:23:41;;;;;;;8.03;5.30;;;;;;;6.39;65.30;99277.97;1819298;79;21595;-83
2021/04/14 10:26:09;;;;;;;7.22;5.00;;;;;;;6.41;64.89;99267.04;1819313;79;21136;-84
2021/04/14 10:28:37;;;;;;;6.67;5.25;;;;;;;6.41;65.02;99272.98;1814220;79;21172;-83
2021/04/14 10:31:13;;;;;;;7.00;4.70;;;;;;;6.36;64.88;99261.92;1814392;79;21140;-84
2021/04/14 10:33:40;;;;;;;5.62;4.45;;;;;;;6.34;65.17;99273.62;1819365;79;21132;-86
2021/04/14 10:36:12;;;;;;;;;;;;;;;6.44;65.25;99272.30;1821975;79;21568;-86
2021/04/14 10:38:38;;;;;;;5.30;4.20;;;;;;;6.52;65.02;99271.30;1819337;79;20383;-86
2021/04/14 10:41:26;;;;;;;6.42;4.45;;;;;;;6.57;64.94;99263.47;1819581;79;21132;-86
2021/04/14 10:43:53;;;;;;;5.95;4.50;;;;;;;6.71;64.88;99269.16;1819312;79;21234;-86
2021/04/14 10:46:23;;;;;;;5.50;4.37;;;;;;;6.83;64.50;99262.24;1819720;79;21657;-84
2021/04/14 10:48:51;;;;;;;6.03;4.33;;;;;;;6.88;64.45;99267.93;1818398;79;21132;-84
2021/04/14 10:51:21;;;;;;;5.85;4.80;;;;;;;6.88;64.26;99267.36;1819352;79;21144;-84
2021/04/14 10:53:51;;;;;;;4.97;3.92;;;;;;;6.93;64.37;99266.29;1819297;79;21164;-84
2021/04/14 10:56:25;;;;;;;4.53;4.05;;;;;;;6.85;64.12;99268.65;1819037;79;21136;-85
2021/04/14 10:58:51;;;;;;;4.97;4.35;;;;;;;6.66;64.05;99265.40;1819180;79;21148;-82
2021/04/14 11:01:20;;;;;;;7.07;4.50;;;;;;;6.63;64.51;99272.86;1819409;79;21137;-85
2021/04/14 11:03:56;;;;;;;5.92;4.60;;;;;;;6.64;64.48;99277.89;1819495;79;21141;-87
2021/04/14 11:06:23;;;;;;;5.72;4.30;;;;;;;6.66;64.46;99271.57;1803944;79;21145;-86
2021/04/14 11:08:49;;;;;;;5.05;4.20;;;;;;;6.66;64.35;99270.80;1820039;79;21161;-86
2021/04/14 11:11:16;;;;;;;5.70;4.58;;;;;;;6.57;64.49;99267.52;1820142;79;21266;-85
2021/04/14 11:13:43;;;;;;;4.58;4.17;;;;;;;6.54;64.35;99274.98;1814198;79;21124;-85
2021/04/14 11:16:10;;;;;;;5.65;4.10;;;;;;;6.58;64.53;99271.22;1819781;79;21255;-86
2021/04/14 11:18:40;;;;;;;5.05;4.08;;;;;;;6.62;64.44;99269.94;1819487;79;21152;-86
2021/04/14 11:21:11;;;;;;;5.17;3.87;;;;;;;6.58;64.50;99261.00;1819396;79;21136;-84
2021/04/14 11:23:38;;;;;;;5.75;4.58;;;;;;;6.53;64.34;99266.69;1804134;79;21140;-84
2021/04/14 11:26:30;;;;;;;4.55;3.70;;;;;;;6.43;64.54;99266.67;1819474;79;21286;-84
2021/04/14 11:28:56;;;;;;;5.20;4.20;;;;;;;6.44;64.60;99269.60;1709284;84;21158;-84
2021/04/14 11:31:29;;;;;;;4.90;4.08;;;;;;;6.50;64.62;99257.95;1709397;84;21640;-84
2021/04/14 11:33:56;;;;;;;4.55;4.08;;;;;;;6.54;64.53;99272.28;1709394;84;21143;-84
2021/04/14 11:36:29;;;;;;;4.83;3.75;;;;;;;6.60;64.44;99266.26;1710045;84;21514;-84
2021/04/14 11:39:02;;;;;;;4.50;4.00;;;;;;;6.66;64.40;99272.15;1709556;84;21581;-84
2021/04/14 11:41:32;;;;;;;5.92;4.30;;;;;;;6.66;64.27;99266.17;1709836;84;21155;-84
2021/04/14 11:43:58;;;;;;;4.67;4.25;;;;;;;6.49;64.22;99266.59;1709265;84;21171;-80
2021/04/14 11:46:31;;;;;;;6.40;4.62;;;;;;;6.44;64.46;99269.03;1709593;84;21166;-85
2021/04/14 11:49:04;;;;;;;5.47;4.40;;;;;;;6.39;64.80;99277.97;1709032;84;21191;-83
2021/04/14 11:51:40;;;;;;;5.08;4.17;;;;;;;6.36;64.76;99273.29;1708832;84;21656;-84
2021/04/14 11:54:31;;;;;;;5.75;4.85;;;;;;;6.41;64.82;99271.63;1709140;84;21147;-83
2021/04/14 11:57:14;;;;;;;5.55;4.35;;;;;;;6.40;64.83;99269.51;1709464;84;21174;-85
2021/04/14 11:59:44;;;;;;;5.40;4.70;;;;;;;6.39;64.94;99276.63;1709462;84;21167;-84